Pendleton, OR (97801)

4:32 AM PDT on May 25, 2015 (GMT -0700)
Sun Ridge Estates | | Change Station
CLOSE
Current Station
Personal Weather Station
Location: Pendleton, OR
Elevation: 1210 ft
Nearby Weather Stations

Elev 1210 ft 45.65 °N, 118.79 °W | Updated 8 minutes ago

Clear
Clear
49.5 °F
Feels Like 50 °F
N
0.0
Wind Variable Wind from NE
Gusts 2.0 mph

Today
High -- | Low -- °F
--% Chance of Precip.
Yesterday
High -- | Low -- °F
Precip. -- in
5:14 AM 8:30 PM
Waxing Crescent, 48% visible
Pressure 29.86 in
Visibility 10.0 miles
Clouds Clear
Windchill 50 °F
Dew Point 44 °F
Humidity 82%
Rainfall 0.00 in
Snow Depth Not available.
UV 0 out of 12
Pollen 8.50 out of 12
Air Quality Not available.
Flu Activity No Activity
METAR KPDT 251053Z AUTO 00000KT 10SM CLR 12/06 A2990 RMK AO2 SLP111 T01220061

More Conditions Fewer Conditions

Pressure 29.86 in
Visibility 10.0 miles
Clouds Clear
Windchill 50 °F
Dew Point 44 °F
Humidity 82%
Rainfall 0.00 in
Snow Depth Not available.
UV 0 out of 12
Pollen 8.50 out of 12
Air Quality Not available.
Flu Activity No Activity
METAR KPDT 251053Z AUTO 00000KT 10SM CLR 12/06 A2990 RMK AO2 SLP111 T01220061

More Conditions Fewer Conditions

10-Day Weather Forecast

Almanac

Astronomy

May. 25, 2015 Rise Set
Actual Time
Civil Twilight
Nautical Twilight
Astronomical Twilight
Moon
Length of Visible Light
Length of Day
Tomorrow will be .
, % of the Moon is Illuminated

Today's Extremes

State Highs State Lows

Community

WunderPhotos

Upload Photos

1,823,980 photos uploaded!

WunderBlogs® & News

Nearby

Air Quality

  Air Quality AQ Index Pollutant
Not available.

Snow Depth

Station Depth Elevation

Earthquake Activity

City Distance Mag. Time & Date
Minimum magnitude displayed is 2.5.

Coastal Water Temperatures

Place Temperature

Stations

Nearby Weather Stations

Station Location Temp. Windchill Dew Point Humidity Wind Precip. Elev Updated Type